Time;durP1;ratioP1;P1;durP2;ratioP2;P2;SDS_P1;SDS_P2;PMS_P1;PMS_P2;Temp;Humidity;BMP_temperature;BMP_pressure;BME280_temperature;BME280_humidity;BME280_pressure;Samples;Min_cycle;Max_cycle;Signal;HPM_P1;HPM_P2
2020/12/18 00:00:27;;;;;;;11.03;10.00;;;6.80;99.90;;;;;;4959527;29;20572;-85
2020/12/18 00:02:55;;;;;;;11.13;10.23;;;6.80;99.90;;;;;;4959746;29;20471;-86
2020/12/18 00:05:22;;;;;;;11.30;9.50;;;6.80;99.90;;;;;;4959684;29;21052;-85
2020/12/18 00:07:49;;;;;;;10.27;9.37;;;6.80;99.90;;;;;;4959439;29;20483;-85
2020/12/18 00:10:17;;;;;;;11.20;9.50;;;6.70;99.90;;;;;;4959708;28;20509;-85
2020/12/18 00:12:44;;;;;;;16.87;9.70;;;6.70;99.90;;;;;;4959541;29;20444;-85
2020/12/18 00:15:11;;;;;;;10.10;9.20;;;6.70;99.90;;;;;;4959768;28;20456;-85
2020/12/18 00:17:38;;;;;;;12.23;10.73;;;6.60;99.90;;;;;;4959315;28;20549;-85
2020/12/18 00:20:07;;;;;;;9.87;8.97;;;6.70;99.90;;;;;;4959698;29;20202;-85
2020/12/18 00:22:34;;;;;;;9.90;9.00;;;6.70;99.90;;;;;;4972783;28;20505;-85
2020/12/18 00:25:01;;;;;;;10.93;9.90;;;6.70;99.90;;;;;;4958204;28;20487;-85
2020/12/18 00:27:28;;;;;;;11.67;9.50;;;6.60;99.90;;;;;;4958969;29;20596;-85
2020/12/18 00:29:56;;;;;;;13.10;9.50;;;6.60;99.90;;;;;;4959138;29;20447;-85
2020/12/18 00:32:23;;;;;;;10.23;9.23;;;6.60;99.90;;;;;;4958801;28;20834;-85
2020/12/18 00:34:50;;;;;;;10.23;9.30;;;6.50;99.90;;;;;;4959020;29;20512;-85
2020/12/18 00:37:20;;;;;;;11.87;9.77;;;6.50;99.90;;;;;;4959435;29;20539;-85
2020/12/18 00:39:47;;;;;;;10.80;9.80;;;6.50;99.90;;;;;;4958837;29;20977;-85
2020/12/18 00:42:14;;;;;;;10.70;9.70;;;6.50;99.90;;;;;;4958164;29;20482;-85
2020/12/18 00:44:42;;;;;;;11.10;10.00;;;6.50;99.90;;;;;;4959476;29;20457;-85
2020/12/18 00:47:09;;;;;;;10.93;9.87;;;6.50;99.90;;;;;;4958470;29;20513;-85
2020/12/18 00:49:36;;;;;;;10.40;9.50;;;6.40;99.90;;;;;;4959194;28;20546;-85
2020/12/18 00:52:03;;;;;;;11.37;10.30;;;6.40;99.90;;;;;;4959069;29;20467;-85
2020/12/18 00:54:32;;;;;;;10.57;9.47;;;6.40;99.90;;;;;;4959663;29;20453;-85
2020/12/18 00:56:59;;;;;;;12.00;10.40;;;6.40;99.90;;;;;;4958854;28;21027;-85
2020/12/18 00:59:26;;;;;;;11.30;9.93;;;6.50;99.90;;;;;;4958878;28;20454;-85
2020/12/18 01:01:57;;;;;;;13.37;10.20;;;6.40;99.90;;;;;;4958146;29;20545;-85
2020/12/18 01:04:46;;;;;;;11.13;10.07;;;6.40;99.90;;;;;;4921327;29;20452;-85
2020/12/18 01:07:13;;;;;;;10.83;9.73;;;6.30;99.90;;;;;;4938052;29;20520;-85
2020/12/18 01:09:42;;;;;;;10.80;9.80;;;6.30;99.90;;;;;;4922203;29;20451;-85
2020/12/18 01:12:12;;;;;;;9.97;8.40;;;6.30;99.90;;;;;;4922514;29;20530;-85
2020/12/18 01:14:40;;;;;;;12.00;9.30;;;6.30;99.90;;;;;;4938248;29;20453;-85
2020/12/18 01:17:08;;;;;;;12.20;11.00;;;6.30;99.90;;;;;;4922635;29;20463;-85
2020/12/18 01:19:36;;;;;;;11.07;9.90;;;6.30;99.90;;;;;;4922819;29;20514;-85
2020/12/18 01:22:04;;;;;;;13.70;9.73;;;6.20;99.90;;;;;;4947189;28;20537;-85
2020/12/18 01:24:44;;;;;;;11.13;9.77;;;6.20;99.90;;;;;;4958211;28;20442;-85
2020/12/18 01:27:13;;;;;;;11.00;9.90;;;6.20;99.90;;;;;;4958662;29;20522;-85
2020/12/18 01:29:40;;;;;;;13.40;10.20;;;6.20;99.90;;;;;;4958690;28;20504;-85
2020/12/18 01:32:10;;;;;;;11.73;10.60;;;6.20;99.90;;;;;;4957839;28;20562;-84
2020/12/18 01:34:43;;;;;;;10.97;9.83;;;6.20;99.90;;;;;;4957151;29;20464;-84
2020/12/18 01:37:14;;;;;;;11.00;9.63;;;6.20;99.90;;;;;;4957780;28;20457;-84
2020/12/18 01:39:53;;;;;;;10.87;9.80;;;6.20;99.90;;;;;;4963710;28;20461;-85
2020/12/18 01:42:26;;;;;;;11.00;9.80;;;6.20;99.90;;;;;;4958917;29;20529;-85
2020/12/18 01:44:54;;;;;;;12.20;10.83;;;6.20;99.90;;;;;;4959890;29;20860;-85
2020/12/18 01:47:28;;;;;;;11.73;10.47;;;6.20;99.90;;;;;;4962682;29;20442;-85
2020/12/18 01:49:59;;;;;;;12.03;10.80;;;6.20;99.90;;;;;;4958112;29;20450;-85
2020/12/18 01:52:28;;;;;;;12.40;11.10;;;6.20;99.90;;;;;;4957379;28;20531;-85
2020/12/18 01:55:05;;;;;;;11.47;10.37;;;6.20;99.90;;;;;;4957947;29;20450;-85
2020/12/18 01:57:40;;;;;;;14.80;10.60;;;6.30;99.90;;;;;;4958117;29;20465;-85
2020/12/18 02:00:09;;;;;;;12.70;11.30;;;6.20;99.90;;;;;;4957572;29;20466;-84
2020/12/18 02:02:43;;;;;;;13.97;12.67;;;6.30;99.90;;;;;;4959227;28;20212;-85
2020/12/18 02:05:39;;;;;;;15.20;12.27;;;6.20;99.90;;;;;;4958484;29;20538;-85
2020/12/18 02:08:20;;;;;;;12.63;11.43;;;6.20;99.90;;;;;;4957979;28;20463;-85
2020/12/18 02:11:07;;;;;;;14.10;12.27;;;6.20;99.90;;;;;;4958885;29;20976;-85
2020/12/18 02:13:35;;;;;;;12.60;11.50;;;6.20;99.90;;;;;;4958228;28;20453;-85
2020/12/18 02:16:02;;;;;;;14.30;12.90;;;6.20;99.90;;;;;;4958885;28;20455;-85
2020/12/18 02:18:43;;;;;;;15.00;13.50;;;6.20;99.90;;;;;;4961664;29;20454;-85
2020/12/18 02:21:10;;;;;;;13.90;12.20;;;6.30;99.90;;;;;;4961121;28;20557;-85
2020/12/18 02:23:40;;;;;;;13.97;12.67;;;6.30;99.90;;;;;;4960438;29;20565;-85
2020/12/18 02:26:11;;;;;;;16.70;13.40;;;6.30;99.90;;;;;;4961904;29;20462;-85
2020/12/18 02:28:45;;;;;;;15.57;13.27;;;6.30;99.90;;;;;;4962302;29;20445;-85
2020/12/18 02:31:16;;;;;;;13.40;12.10;;;6.30;99.90;;;;;;4961170;29;20474;-85
2020/12/18 02:34:01;;;;;;;14.87;13.47;;;6.40;99.90;;;;;;4961263;29;20462;-85
2020/12/18 02:36:32;;;;;;;14.70;13.30;;;6.40;99.90;;;;;;4960915;29;20541;-85
2020/12/18 02:39:04;;;;;;;15.20;12.97;;;6.40;99.90;;;;;;4961313;29;20455;-85
2020/12/18 02:41:36;;;;;;;16.40;14.90;;;6.40;99.90;;;;;;4960810;29;20485;-85
2020/12/18 02:44:20;;;;;;;15.80;14.17;;;6.40;99.90;;;;;;4961099;28;20526;-85
2020/12/18 02:47:10;;;;;;;15.47;13.97;;;6.40;99.90;;;;;;4961186;28;20462;-85
2020/12/18 02:49:37;;;;;;;16.13;14.43;;;6.40;99.90;;;;;;4961202;29;20872;-85
2020/12/18 02:52:22;;;;;;;16.20;14.70;;;6.40;99.90;;;;;;4960896;28;20470;-85
2020/12/18 02:55:08;;;;;;;16.63;14.90;;;6.40;99.90;;;;;;4961928;29;20442;-85
2020/12/18 02:57:58;;;;;;;16.53;15.03;;;6.40;99.90;;;;;;4961231;29;20990;-85
2020/12/18 03:00:31;;;;;;;16.17;14.67;;;6.40;99.90;;;;;;4960694;28;20553;-85
2020/12/18 03:02:59;;;;;;;17.10;14.90;;;6.40;99.90;;;;;;4960001;28;20524;-85
2020/12/18 03:05:30;;;;;;;16.80;14.30;;;6.40;99.90;;;;;;4960092;29;20506;-85
2020/12/18 03:08:14;;;;;;;17.13;15.53;;;6.30;99.90;;;;;;4960458;29;20807;-85
2020/12/18 03:10:41;;;;;;;16.20;14.50;;;6.40;99.90;;;;;;4960427;29;20467;-85
2020/12/18 03:13:10;;;;;;;17.17;15.37;;;6.40;99.90;;;;;;4961766;28;20439;-85
2020/12/18 03:15:38;;;;;;;18.33;16.50;;;6.40;99.90;;;;;;4960199;29;20447;-85
2020/12/18 03:18:24;;;;;;;17.07;15.43;;;6.40;99.90;;;;;;4960618;28;20835;-85
2020/12/18 03:20:53;;;;;;;19.70;17.70;;;6.30;99.90;;;;;;4960313;28;20510;-85
2020/12/18 03:23:50;;;;;;;18.70;16.70;;;6.30;99.90;;;;;;4976905;28;20482;-85
2020/12/18 03:26:37;;;;;;;19.40;16.27;;;6.30;99.90;;;;;;4960885;28;20446;-85
2020/12/18 03:29:14;;;;;;;20.40;17.33;;;6.30;99.90;;;;;;4960052;28;20458;-85
2020/12/18 03:31:42;;;;;;;17.97;16.40;;;6.30;99.90;;;;;;4960135;29;20475;-85
2020/12/18 03:34:09;;;;;;;18.30;16.57;;;6.30;99.90;;;;;;4960591;29;20461;-85
2020/12/18 03:36:46;;;;;;;18.70;16.70;;;6.30;99.90;;;;;;4959746;29;20435;-85
2020/12/18 03:39:13;;;;;;;19.07;17.07;;;6.30;99.90;;;;;;4960229;29;21015;-85
2020/12/18 03:42:00;;;;;;;18.43;16.80;;;6.30;99.90;;;;;;4959986;29;20480;-85
2020/12/18 03:44:29;;;;;;;19.00;16.97;;;6.30;99.90;;;;;;4960146;28;20981;-85
2020/12/18 03:46:57;;;;;;;18.23;16.40;;;6.30;99.90;;;;;;4960566;29;20473;-85
2020/12/18 03:49:36;;;;;;;20.37;17.77;;;6.30;99.90;;;;;;4960217;29;20529;-85
2020/12/18 03:52:05;;;;;;;20.40;18.47;;;6.20;99.90;;;;;;4960004;29;20566;-85
2020/12/18 03:54:40;;;;;;;19.30;17.33;;;6.20;99.90;;;;;;4959638;29;20439;-85
2020/12/18 03:57:27;;;;;;;19.60;17.60;;;6.20;99.90;;;;;;4959195;28;20477;-85
2020/12/18 04:00:07;;;;;;;20.63;17.53;;;6.40;99.90;;;;;;4960063;29;20286;-85
2020/12/18 04:02:43;;;;;;;18.33;16.43;;;6.30;99.90;;;;;;4959554;29;20483;-85
2020/12/18 04:05:13;;;;;;;19.65;17.58;;;6.40;99.90;;;;;;4958663;28;20495;-85
2020/12/18 04:07:43;;;;;;;19.83;17.77;;;6.40;99.90;;;;;;4959716;29;20207;-85
2020/12/18 04:10:26;;;;;;;20.30;17.70;;;6.40;99.90;;;;;;4958778;29;20482;-85
2020/12/18 04:13:16;;;;;;;18.60;16.80;;;6.30;99.90;;;;;;4958368;29;20956;-84
2020/12/18 04:15:45;;;;;;;21.03;18.87;;;6.20;99.90;;;;;;4958450;28;20473;-84
2020/12/18 04:18:13;;;;;;;20.40;18.20;;;6.20;99.90;;;;;;4965125;29;20441;-85
2020/12/18 04:20:42;;;;;;;19.40;17.33;;;6.20;99.90;;;;;;4959484;29;21058;-85
2020/12/18 04:23:41;;;;;;;18.40;16.70;;;6.20;99.90;;;;;;4960203;28;20975;-85
2020/12/18 04:26:17;;;;;;;19.83;17.80;;;6.10;99.90;;;;;;4959334;29;20534;-85
2020/12/18 04:28:46;;;;;;;20.87;18.77;;;6.10;99.90;;;;;;4958999;28;20486;-85
2020/12/18 04:31:16;;;;;;;21.73;18.77;;;6.10;99.90;;;;;;4958529;28;20467;-85
2020/12/18 04:33:44;;;;;;;23.20;20.77;;;6.10;99.90;;;;;;4958556;29;20454;-85
2020/12/18 04:36:15;;;;;;;22.17;19.97;;;6.00;99.90;;;;;;4958959;29;20457;-85
2020/12/18 04:38:43;;;;;;;21.80;19.53;;;6.10;99.90;;;;;;4958867;28;20834;-85
2020/12/18 04:41:20;;;;;;;23.70;19.17;;;6.00;99.90;;;;;;4958484;28;20537;-85
2020/12/18 04:43:57;;;;;;;23.47;21.00;;;6.00;99.90;;;;;;4959014;29;20553;-85
2020/12/18 04:46:38;;;;;;;20.57;18.53;;;6.00;99.90;;;;;;4958627;28;20478;-85
2020/12/18 04:49:05;;;;;;;22.77;20.60;;;6.00;99.90;;;;;;4958964;29;20451;-85
2020/12/18 04:51:42;;;;;;;22.20;18.87;;;6.00;99.90;;;;;;4959053;29;20494;-85
2020/12/18 04:54:31;;;;;;;21.80;19.80;;;5.90;99.90;;;;;;4959075;28;20497;-85
2020/12/18 04:57:07;;;;;;;23.90;21.37;;;5.90;99.90;;;;;;4958341;28;20457;-85
2020/12/18 04:59:35;;;;;;;23.33;20.97;;;5.90;99.90;;;;;;4958778;28;20458;-85
2020/12/18 05:02:30;;;;;;;25.33;20.67;;;5.90;99.90;;;;;;4958484;28;20929;-85
2020/12/18 05:05:00;;;;;;;24.23;21.23;;;5.90;99.90;;;;;;4958092;28;20441;-85
2020/12/18 05:07:45;;;;;;;24.93;22.40;;;5.90;99.90;;;;;;4958537;29;20469;-85
2020/12/18 05:10:13;;;;;;;25.67;22.53;;;5.90;99.90;;;;;;4957937;29;20453;-85
2020/12/18 05:13:04;;;;;;;25.17;22.43;;;5.90;99.90;;;;;;4958634;29;20463;-85
2020/12/18 05:15:52;;;;;;;24.73;22.07;;;5.90;99.90;;;;;;4959334;28;20484;-85
2020/12/18 05:18:46;;;;;;;25.37;22.67;;;5.90;99.90;;;;;;4959206;29;20454;-85
2020/12/18 05:21:44;;;;;;;24.27;21.87;;;5.80;99.90;;;;;;4963296;28;20506;-85
2020/12/18 05:24:21;;;;;;;24.93;22.17;;;5.80;99.90;;;;;;4957833;28;20498;-85
2020/12/18 05:26:51;;;;;;;24.77;22.17;;;5.80;99.90;;;;;;4957763;28;20490;-85
2020/12/18 05:29:21;;;;;;;27.20;23.03;;;5.80;99.90;;;;;;4957913;29;20463;-85
2020/12/18 05:32:13;;;;;;;24.80;22.27;;;5.80;99.90;;;;;;4959053;29;20467;-85
2020/12/18 05:34:52;;;;;;;25.90;23.20;;;5.80;99.90;;;;;;4958570;28;20964;-85
2020/12/18 05:37:38;;;;;;;24.43;21.93;;;5.70;99.90;;;;;;4957805;29;20501;-85
2020/12/18 05:40:19;;;;;;;27.43;22.70;;;5.80;99.90;;;;;;4957869;29;20552;-85
2020/12/18 05:43:08;;;;;;;25.33;22.60;;;5.80;99.90;;;;;;4959648;29;20833;-85
2020/12/18 05:45:44;;;;;;;26.00;23.20;;;5.70;99.90;;;;;;4958313;29;20533;-85
2020/12/18 05:48:31;;;;;;;26.10;23.40;;;5.70;99.90;;;;;;4968059;28;20454;-85
2020/12/18 05:51:11;;;;;;;26.33;23.57;;;5.70;99.90;;;;;;4959746;28;20475;-85
2020/12/18 05:53:38;;;;;;;25.63;22.83;;;5.70;99.90;;;;;;4961594;29;20446;-85
2020/12/18 05:56:29;;;;;;;28.33;24.00;;;5.70;99.90;;;;;;4961955;28;20488;-85
2020/12/18 05:59:06;;;;;;;25.83;23.20;;;5.70;99.90;;;;;;4961960;29;20439;-85
2020/12/18 06:01:42;;;;;;;25.43;22.73;;;5.70;99.90;;;;;;4962640;29;20482;-86
2020/12/18 06:04:32;;;;;;;28.00;24.60;;;5.70;99.90;;;;;;4963295;29;20533;-85
2020/12/18 06:07:05;;;;;;;25.70;22.13;;;5.70;99.90;;;;;;4962407;28;20281;-85
2020/12/18 06:09:51;;;;;;;24.43;21.83;;;5.80;99.90;;;;;;4963526;29;20426;-85
2020/12/18 06:12:25;;;;;;;26.67;23.75;;;5.70;99.90;;;;;;4961709;29;20463;-85
2020/12/18 06:14:52;;;;;;;27.90;23.23;;;5.70;99.90;;;;;;4962953;28;20271;-85
2020/12/18 06:17:28;;;;;;;24.97;22.40;;;5.70;99.90;;;;;;4962547;29;20964;-85
2020/12/18 06:20:03;;;;;;;25.60;22.80;;;5.70;99.90;;;;;;4961836;28;20463;-85
2020/12/18 06:22:52;;;;;;;24.93;22.23;;;5.70;99.90;;;;;;4962034;29;20478;-85
2020/12/18 06:25:33;;;;;;;24.57;22.07;;;5.60;99.90;;;;;;4962353;28;20447;-86
2020/12/18 06:28:23;;;;;;;23.93;21.57;;;5.60;99.90;;;;;;4962398;29;21056;-86
2020/12/18 06:31:22;;;;;;;26.47;22.20;;;5.60;99.90;;;;;;4961923;28;20566;-86
2020/12/18 06:34:07;;;;;;;26.47;23.27;;;5.60;99.90;;;;;;4963505;29;20478;-86
2020/12/18 06:37:00;;;;;;;25.63;22.33;;;5.50;99.90;;;;;;4965190;28;20454;-85
2020/12/18 06:39:57;;;;;;;25.43;21.50;;;5.60;99.90;;;;;;4962533;29;20454;-85
2020/12/18 06:42:48;;;;;;;30.73;25.13;;;5.60;99.90;;;;;;4965185;28;20477;-86
2020/12/18 06:46:04;;;;;;;26.63;23.43;;;5.50;99.90;;;;;;4961911;28;20454;-85
2020/12/18 06:48:51;;;;;;;26.33;23.53;;;5.50;99.90;;;;;;4962926;29;20438;-85
2020/12/18 06:51:46;;;;;;;25.37;22.53;;;5.50;99.90;;;;;;4961955;29;20549;-85
2020/12/18 06:54:58;;;;;;;25.00;20.80;;;5.50;99.90;;;;;;4963108;28;20450;-85
2020/12/18 06:57:44;;;;;;;26.63;22.57;;;5.50;99.90;;;;;;4969487;29;20430;-85
2020/12/18 07:00:30;;;;;;;25.57;22.10;;;5.50;99.90;;;;;;4962090;28;20481;-85
2020/12/18 07:02:59;;;;;;;22.20;19.83;;;5.50;99.90;;;;;;4960228;28;20842;-86
2020/12/18 07:05:32;;;;;;;26.83;20.03;;;5.50;99.90;;;;;;4961692;29;20545;-86
2020/12/18 07:08:01;;;;;;;21.17;18.67;;;5.50;99.90;;;;;;4961487;28;20501;-86
2020/12/18 07:10:31;;;;;;;20.03;17.60;;;5.50;99.90;;;;;;4961398;29;20477;-86
2020/12/18 07:12:59;;;;;;;19.83;17.33;;;5.50;99.90;;;;;;4961610;29;20447;-86
2020/12/18 07:15:28;;;;;;;21.87;17.80;;;5.50;99.90;;;;;;4961694;29;20457;-85
2020/12/18 07:17:56;;;;;;;19.37;17.47;;;5.50;99.90;;;;;;4961001;29;20466;-85
2020/12/18 07:20:27;;;;;;;20.90;18.60;;;5.50;99.90;;;;;;4961281;29;20478;-85
2020/12/18 07:22:55;;;;;;;18.87;16.80;;;5.50;99.90;;;;;;4960558;28;20478;-85
2020/12/18 07:25:22;;;;;;;19.27;17.23;;;5.50;99.90;;;;;;4960971;28;20450;-86
2020/12/18 07:27:50;;;;;;;29.13;24.87;;;5.50;99.90;;;;;;4960346;29;20462;-86
2020/12/18 07:30:20;;;;;;;28.93;18.40;;;5.50;99.90;;;;;;4961906;28;20858;-86
2020/12/18 07:32:50;;;;;;;19.63;16.27;;;5.50;99.90;;;;;;4960549;29;20443;-85
2020/12/18 07:35:17;;;;;;;18.63;16.53;;;5.50;99.90;;;;;;4960513;29;20447;-85
2020/12/18 07:37:44;;;;;;;17.30;15.50;;;5.50;99.90;;;;;;4960383;28;20482;-86
2020/12/18 07:40:11;;;;;;;18.47;15.10;;;5.50;99.90;;;;;;4961624;29;20986;-85
2020/12/18 07:42:40;;;;;;;17.63;15.80;;;5.40;99.90;;;;;;4960618;29;20490;-85
2020/12/18 07:45:10;;;;;;;18.10;16.20;;;5.50;99.90;;;;;;4961038;29;20543;-86
2020/12/18 07:47:38;;;;;;;21.77;15.85;;;5.50;99.90;;;;;;4959900;28;20862;-85
2020/12/18 07:50:06;;;;;;;17.40;15.60;;;5.60;99.90;;;;;;4961611;28;20553;-86
2020/12/18 07:52:35;;;;;;;17.40;14.97;;;5.50;99.90;;;;;;4961338;28;21113;-85
2020/12/18 07:55:03;;;;;;;18.27;15.52;;;5.50;99.90;;;;;;4961326;28;20502;-85
2020/12/18 07:57:32;;;;;;;21.30;15.27;;;5.60;99.90;;;;;;4961151;29;20198;-85
2020/12/18 08:00:08;;;;;;;16.53;14.50;;;5.60;99.90;;;;;;4961462;28;20452;-85
2020/12/18 08:02:39;;;;;;;14.93;13.43;;;5.60;99.90;;;;;;4958970;28;20487;-85
2020/12/18 08:05:07;;;;;;;16.17;14.30;;;5.60;99.90;;;;;;4960804;28;20447;-86
2020/12/18 08:07:34;;;;;;;22.73;17.00;;;5.50;99.90;;;;;;4960730;29;20459;-86
2020/12/18 08:10:03;;;;;;;14.57;12.67;;;5.50;99.90;;;;;;4960592;29;20478;-86
2020/12/18 08:12:31;;;;;;;14.20;12.70;;;5.50;99.90;;;;;;4960627;28;20455;-85
2020/12/18 08:15:10;;;;;;;14.70;12.57;;;5.50;99.90;;;;;;4959688;28;20482;-86
2020/12/18 08:17:37;;;;;;;13.53;11.90;;;5.60;99.90;;;;;;4959281;29;20457;-85
2020/12/18 08:20:05;;;;;;;14.57;11.73;;;5.60;99.90;;;;;;4960045;28;20450;-84
2020/12/18 08:22:36;;;;;;;12.57;11.27;;;5.50;99.90;;;;;;4961408;28;20446;-86
2020/12/18 08:25:07;;;;;;;12.37;11.17;;;5.50;99.90;;;;;;4961305;29;20521;-86
2020/12/18 08:27:38;;;;;;;13.37;12.07;;;5.60;99.90;;;;;;4960300;29;20494;-85
2020/12/18 08:30:06;;;;;;;12.73;10.90;;;5.60;99.90;;;;;;4960198;29;20446;-86
2020/12/18 08:32:38;;;;;;;17.40;11.80;;;5.60;99.90;;;;;;4960950;28;20442;-85
2020/12/18 08:35:07;;;;;;;13.90;11.40;;;5.60;99.90;;;;;;4960064;29;20442;-85
2020/12/18 08:37:34;;;;;;;12.67;10.57;;;5.60;99.90;;;;;;4960270;29;20520;-85
2020/12/18 08:40:03;;;;;;;14.13;10.27;;;5.60;99.90;;;;;;4959789;29;20450;-85
2020/12/18 08:42:30;;;;;;;11.57;10.40;;;5.60;99.90;;;;;;4960034;28;20486;-85
2020/12/18 08:45:00;;;;;;;16.07;11.07;;;5.70;99.90;;;;;;4959450;29;20466;-86
2020/12/18 08:47:30;;;;;;;23.70;17.93;;;5.70;99.90;;;;;;4960619;28;20446;-85
2020/12/18 08:49:59;;;;;;;13.77;11.10;;;5.80;99.90;;;;;;4960615;28;20464;-85
2020/12/18 08:52:28;;;;;;;10.93;9.77;;;5.80;99.90;;;;;;4959714;29;20498;-86
2020/12/18 08:55:01;;;;;;;13.63;9.87;;;5.80;99.90;;;;;;4960155;29;20453;-86
2020/12/18 08:57:29;;;;;;;10.67;9.50;;;5.90;99.90;;;;;;4960891;28;20431;-86
2020/12/18 09:00:15;;;;;;;15.10;9.87;;;5.90;99.90;;;;;;4960893;29;20458;-86
2020/12/18 09:02:55;;;;;;;10.10;9.10;;;5.90;99.90;;;;;;4961411;28;20466;-86
2020/12/18 09:05:26;;;;;;;10.73;9.00;;;5.90;99.90;;;;;;4959573;29;20529;-85
2020/12/18 09:07:57;;;;;;;10.60;9.37;;;6.00;99.90;;;;;;4959811;29;20447;-86
2020/12/18 09:10:34;;;;;;;21.90;16.73;;;6.00;99.90;;;;;;4959825;29;20513;-86
2020/12/18 09:13:14;;;;;;;12.77;10.00;;;6.10;99.90;;;;;;4959937;28;20458;-86
2020/12/18 09:15:43;;;;;;;11.50;8.50;;;6.10;99.90;;;;;;4959746;29;20994;-86
2020/12/18 09:18:12;;;;;;;11.07;8.47;;;6.10;99.90;;;;;;4959294;29;20457;-86
2020/12/18 09:20:43;;;;;;;11.30;7.97;;;6.10;99.90;;;;;;4959742;29;20481;-86
2020/12/18 09:23:12;;;;;;;9.70;7.97;;;6.10;99.90;;;;;;4959611;28;20470;-85
2020/12/18 09:25:41;;;;;;;8.00;7.20;;;6.20;99.90;;;;;;4959311;28;20451;-86
2020/12/18 09:28:17;;;;;;;8.60;6.83;;;6.10;99.90;;;;;;4959390;29;20447;-86
2020/12/18 09:30:49;;;;;;;7.33;6.30;;;6.20;99.90;;;;;;4959518;29;20473;-86
2020/12/18 09:33:25;;;;;;;8.63;7.50;;;6.20;99.90;;;;;;4959471;28;20885;-85
2020/12/18 09:35:56;;;;;;;13.67;7.83;;;6.30;99.90;;;;;;4959615;28;20828;-85
2020/12/18 09:38:25;;;;;;;9.87;6.93;;;6.30;99.90;;;;;;4959825;29;20446;-86
2020/12/18 09:40:53;;;;;;;8.10;6.80;;;6.30;99.90;;;;;;4959542;28;20479;-86
2020/12/18 09:43:21;;;;;;;11.23;9.83;;;6.30;99.90;;;;;;4959595;29;20498;-86
2020/12/18 09:45:49;;;;;;;8.23;7.50;;;6.40;99.90;;;;;;4959822;29;20438;-86
2020/12/18 09:48:17;;;;;;;9.40;7.00;;;6.40;99.90;;;;;;4959600;29;20509;-86
2020/12/18 09:50:44;;;;;;;7.33;6.63;;;6.40;99.90;;;;;;4961547;28;20498;-86
2020/12/18 09:53:12;;;;;;;7.40;6.70;;;6.40;99.90;;;;;;4959620;28;20473;-86
2020/12/18 09:55:40;;;;;;;7.80;7.00;;;6.50;99.90;;;;;;4959873;29;20455;-85
2020/12/18 09:58:07;;;;;;;9.10;8.20;;;6.60;99.90;;;;;;4959695;28;20972;-85
2020/12/18 10:00:34;;;;;;;6.97;6.20;;;6.50;99.90;;;;;;4958686;28;20493;-85
2020/12/18 10:03:04;;;;;;;8.80;7.60;;;6.60;99.90;;;;;;4957447;28;20967;-85
2020/12/18 10:05:31;;;;;;;8.97;6.00;;;6.70;99.90;;;;;;4957666;28;20210;-85
2020/12/18 10:07:58;;;;;;;7.40;6.60;;;6.80;99.90;;;;;;4962497;28;20459;-85
2020/12/18 10:10:27;;;;;;;7.83;6.10;;;6.80;99.90;;;;;;4960415;29;20462;-86
2020/12/18 10:12:55;;;;;;;8.60;7.00;;;6.80;99.90;;;;;;4959407;28;21017;-86
2020/12/18 10:15:22;;;;;;;9.17;6.97;;;7.00;99.90;;;;;;4959505;29;20451;-86
2020/12/18 10:17:50;;;;;;;12.50;9.40;;;6.90;99.90;;;;;;4959254;29;20514;-85
2020/12/18 10:20:18;;;;;;;10.70;8.30;;;6.90;99.90;;;;;;4958920;29;20807;-86
2020/12/18 10:22:45;;;;;;;7.27;5.97;;;7.00;99.90;;;;;;4959332;29;20977;-86
2020/12/18 10:25:13;;;;;;;8.40;6.70;;;7.00;99.90;;;;;;4958759;28;20512;-85
2020/12/18 10:27:43;;;;;;;8.23;6.30;;;7.10;99.90;;;;;;4958448;29;20456;-85
2020/12/18 10:30:10;;;;;;;8.57;6.37;;;7.10;99.90;;;;;;4959321;28;20961;-87
2020/12/18 10:32:38;;;;;;;8.33;6.43;;;7.10;99.90;;;;;;4958609;29;20462;-87
2020/12/18 10:35:07;;;;;;;8.43;6.10;;;7.20;99.90;;;;;;4958662;28;20455;-87
2020/12/18 10:37:35;;;;;;;8.13;5.37;;;7.30;99.90;;;;;;4961518;28;20442;-84
2020/12/18 10:40:03;;;;;;;6.53;5.83;;;7.30;99.90;;;;;;4962769;29;20513;-85
2020/12/18 10:42:31;;;;;;;7.37;5.60;;;7.40;99.90;;;;;;4962368;28;20457;-85
2020/12/18 10:44:59;;;;;;;7.50;5.27;;;7.40;99.90;;;;;;4961803;29;20476;-85
2020/12/18 10:47:27;;;;;;;8.20;5.97;;;7.50;99.90;;;;;;4962195;28;20490;-85
2020/12/18 10:49:54;;;;;;;8.97;5.53;;;7.60;99.90;;;;;;4962625;28;20468;-85
2020/12/18 10:52:21;;;;;;;7.60;4.70;;;7.60;99.90;;;;;;4962605;29;20524;-84
2020/12/18 10:54:49;;;;;;;5.73;4.23;;;7.70;99.90;;;;;;4962670;29;20540;-85
2020/12/18 10:57:17;;;;;;;9.53;5.20;;;7.80;99.90;;;;;;4962286;28;20551;-85
2020/12/18 10:59:45;;;;;;;7.10;5.30;;;7.80;99.90;;;;;;4962013;28;20465;-86
2020/12/18 11:02:13;;;;;;;7.13;4.37;;;7.80;99.90;;;;;;4961488;29;20877;-87
2020/12/18 11:04:40;;;;;;;7.07;4.83;;;7.90;99.90;;;;;;4960952;28;20484;-87
2020/12/18 11:07:07;;;;;;;4.97;4.40;;;7.90;99.90;;;;;;4960154;29;20484;-87
2020/12/18 11:09:35;;;;;;;5.97;4.37;;;8.00;99.90;;;;;;4960216;29;20490;-88
2020/12/18 11:12:03;;;;;;;6.63;6.03;;;8.00;99.90;;;;;;4956448;29;20990;-87
2020/12/18 11:14:30;;;;;;;8.97;5.70;;;8.10;99.90;;;;;;4959863;29;20449;-88
2020/12/18 11:16:58;;;;;;;5.83;4.53;;;8.10;99.90;;;;;;4961886;29;20450;-86
2020/12/18 11:19:26;;;;;;;5.03;4.40;;;8.20;99.90;;;;;;4962631;29;20493;-86
2020/12/18 11:21:53;;;;;;;4.53;4.13;;;8.20;99.90;;;;;;4961793;29;21053;-86
2020/12/18 11:24:20;;;;;;;5.93;4.17;;;8.30;99.90;;;;;;4963326;28;20477;-86
2020/12/18 11:26:52;;;;;;;8.20;4.50;;;8.30;99.90;;;;;;4962196;29;20453;-86
2020/12/18 11:29:20;;;;;;;7.67;5.03;;;8.30;99.90;;;;;;4961784;29;20501;-86
2020/12/18 11:31:48;;;;;;;6.87;3.97;;;8.30;99.90;;;;;;4963003;28;20462;-86
2020/12/18 11:34:19;;;;;;;7.70;4.47;;;8.30;99.90;;;;;;4961922;29;20496;-86
2020/12/18 11:36:48;;;;;;;6.87;4.17;;;8.40;99.90;;;;;;4961944;29;20461;-86
2020/12/18 11:39:16;;;;;;;6.47;4.32;;;8.40;99.90;;;;;;4960427;29;20463;-86
2020/12/18 11:41:48;;;;;;;4.83;4.30;;;8.50;99.90;;;;;;4962119;29;20229;-86
2020/12/18 11:44:17;;;;;;;5.57;4.17;;;8.50;99.90;;;;;;4966195;29;20546;-86
2020/12/18 11:46:48;;;;;;;6.83;4.80;;;8.60;99.90;;;;;;4962510;29;20462;-86
2020/12/18 11:49:15;;;;;;;6.67;4.33;;;8.60;99.90;;;;;;4960427;28;20454;-86
2020/12/18 11:51:42;;;;;;;4.60;3.97;;;8.60;99.90;;;;;;4961495;29;20473;-86
2020/12/18 11:54:10;;;;;;;7.40;4.23;;;8.60;99.90;;;;;;4961390;29;20460;-86
2020/12/18 11:56:38;;;;;;;5.33;4.23;;;8.70;99.90;;;;;;4963431;28;20441;-86
2020/12/18 11:59:05;;;;;;;5.27;4.77;;;8.70;99.90;;;;;;4961451;29;20462;-86
2020/12/18 12:01:32;;;;;;;6.10;4.30;;;8.80;99.90;;;;;;4961305;29;20474;-86
2020/12/18 12:04:00;;;;;;;5.23;4.00;;;8.80;99.90;;;;;;4961935;29;21015;-86
2020/12/18 12:06:27;;;;;;;4.10;3.70;;;8.80;99.90;;;;;;4961081;28;20537;-86
2020/12/18 12:08:58;;;;;;;6.30;4.10;;;8.80;99.90;;;;;;4961062;29;20467;-86
2020/12/18 12:11:26;;;;;;;6.60;4.27;;;8.80;99.90;;;;;;4961424;29;20517;-86
2020/12/18 12:13:53;;;;;;;4.50;3.70;;;8.90;99.90;;;;;;4961918;29;20487;-86
2020/12/18 12:16:21;;;;;;;4.10;3.47;;;8.90;99.90;;;;;;4961698;29;20456;-86
2020/12/18 12:18:48;;;;;;;8.70;3.73;;;8.90;99.90;;;;;;4960815;29;20462;-86
2020/12/18 12:21:15;;;;;;;3.80;3.30;;;8.90;99.90;;;;;;4961003;29;20539;-84
2020/12/18 12:23:43;;;;;;;5.30;3.83;;;9.00;99.90;;;;;;4961051;29;20984;-88
2020/12/18 12:26:11;;;;;;;4.60;4.00;;;9.00;99.90;;;;;;4962221;29;21033;-88
2020/12/18 12:28:40;;;;;;;4.53;3.60;;;9.00;99.90;;;;;;4962447;29;20465;-88
2020/12/18 12:31:09;;;;;;;4.57;3.50;;;9.00;99.90;;;;;;4959391;29;20871;-87
2020/12/18 12:33:37;;;;;;;6.03;3.90;;;9.10;99.90;;;;;;4961829;29;20462;-87
2020/12/18 12:36:04;;;;;;;4.67;3.30;;;9.10;99.90;;;;;;4962201;29;20456;-87
2020/12/18 12:38:32;;;;;;;6.17;3.67;;;9.10;99.90;;;;;;4960406;29;20466;-87
2020/12/18 12:40:59;;;;;;;4.93;3.83;;;9.10;99.90;;;;;;4960672;29;20580;-87
2020/12/18 12:43:26;;;;;;;4.77;3.63;;;9.10;99.90;;;;;;4960192;29;20501;-87
2020/12/18 12:45:55;;;;;;;3.93;3.37;;;9.20;99.90;;;;;;4958871;29;20505;-86
2020/12/18 12:48:23;;;;;;;6.23;3.87;;;9.20;99.90;;;;;;4962662;29;20497;-86
2020/12/18 12:50:50;;;;;;;7.60;4.27;;;9.20;99.90;;;;;;4971285;29;20485;-87
2020/12/18 12:53:24;;;;;;;5.80;3.90;;;9.20;99.90;;;;;;4961420;29;20464;-87
2020/12/18 13:56:45;;;;;;;6.50;3.80;;;9.70;99.90;;;;;;4776397;30;20459;-87
2020/12/18 13:59:13;;;;;;;6.70;3.70;;;9.60;99.90;;;;;;4775417;30;20858;-87
2020/12/18 14:01:50;;;;;;;;;;;;;;;;;;;;;
2020/12/18 14:13:49;;;;;;;5.43;3.77;;;9.50;99.90;;;;;;4821887;29;20204;-86
2020/12/18 14:24:13;;;;;;;4.70;3.63;;;9.40;99.90;;;;;;4818546;29;20490;-86
2020/12/18 14:26:40;;;;;;;4.50;3.60;;;9.30;99.90;;;;;;4816568;29;20453;-86
2020/12/18 14:29:08;;;;;;;5.63;3.50;;;9.30;99.90;;;;;;4816944;29;20588;-86
2020/12/18 14:31:36;;;;;;;11.07;5.43;;;9.30;99.90;;;;;;4831664;29;20487;-86